Wolf Bayou, Arkansas
Current Conditions -  °F | °C
As of 1:15 PM on Sunday 23 Nov 2014 (Local Time) from KBVX Reporting Station
Overcast Overcast  
Wind Chill: 59°   Ceiling: 800
Heat Index: 59°   Visibility: 10mi
Dew Point: 57°   Wind: 3mph
Humidity: 94%   Direction: 150°SSE
Pressure: 29.4"   Gusts: NA
Location:  35.6661°N, 91.94°W
Report Text: KBVX 231915Z AUTO 15003KT 10SM OVC008 15/14 A2940 RMK AO1 P0001
Loading
Personal Weather Stations






























Interactive Weather Map New forecast layout! Learn more

10-Day Weather Forecast

Advertisements
Track Severe Weather on mobile